Time;durP1;ratioP1;P1;durP2;ratioP2;P2;SDS_P1;SDS_P2;PMS_P1;PMS_P2;Temp;Humidity;BMP_temperature;BMP_pressure;BME280_temperature;BME280_humidity;BME280_pressure;Samples;Min_cycle;Max_cycle;Signal;HPM_P1;HPM_P2
2022/12/30 00:00:50;;;;;;;29.77;4.97;;;6.20;99.90;;;;;;5148301;27;20126;-52
2022/12/30 00:03:16;;;;;;;25.15;4.90;;;6.20;99.90;;;;;;5146615;27;20036;-50
2022/12/30 00:05:42;;;;;;;29.80;5.05;;;6.10;99.90;;;;;;5146489;27;20034;-46
2022/12/30 00:10:52;;;;;;;29.70;5.03;;;6.10;99.90;;;;;;5127363;27;20486;-55
2022/12/30 00:35:20;;;;;;;30.67;5.28;;;6.00;99.90;;;;;;5129113;27;20039;-50
2022/12/30 00:37:46;;;;;;;37.63;5.22;;;6.00;99.90;;;;;;5146093;27;20078;-51
2022/12/30 00:40:11;;;;;;;36.28;5.38;;;6.00;99.90;;;;;;5146310;27;20133;-54
2022/12/30 00:45:23;;;;;;;26.98;5.25;;;5.90;99.90;;;;;;5146524;27;20465;-54
2022/12/30 00:47:48;;;;;;;29.88;4.63;;;5.90;99.90;;;;;;5147212;27;20502;-56
2022/12/30 00:58:27;;;;;;;29.13;4.93;;;5.90;99.90;;;;;;5110584;27;20039;-50
2022/12/30 01:00:54;;;;;;;31.33;4.78;;;5.90;99.90;;;;;;5128399;27;20172;-51
2022/12/30 01:03:19;;;;;;;31.95;4.60;;;5.80;99.90;;;;;;5145896;27;20034;-53
2022/12/30 01:05:45;;;;;;;28.75;4.88;;;5.90;99.90;;;;;;5144601;27;20037;-53
2022/12/30 01:08:10;;;;;;;22.15;3.72;;;5.80;99.90;;;;;;5144874;27;20138;-54
2022/12/30 01:10:38;;;;;;;21.27;4.32;;;5.80;99.90;;;;;;5146613;27;20280;-52
2022/12/30 01:13:04;;;;;;;26.75;3.85;;;5.90;99.90;;;;;;5146924;27;20580;-52
2022/12/30 01:15:29;;;;;;;26.27;4.60;;;5.90;99.90;;;;;;5146269;27;20246;-51
2022/12/30 01:17:55;;;;;;;29.67;4.45;;;5.80;99.90;;;;;;5127922;27;20142;-52
2022/12/30 01:20:21;;;;;;;29.50;4.13;;;5.80;99.90;;;;;;5144149;27;20443;-53
2022/12/30 01:22:46;;;;;;;20.63;4.75;;;5.80;99.90;;;;;;5145198;27;20620;-51
2022/12/30 01:25:12;;;;;;;33.45;5.13;;;5.80;99.90;;;;;;5145734;27;20042;-52
2022/12/30 01:27:37;;;;;;;31.38;4.93;;;5.80;99.90;;;;;;5146482;27;20505;-50
2022/12/30 01:30:03;;;;;;;24.40;4.95;;;5.80;99.90;;;;;;5146428;27;20042;-50
2022/12/30 01:32:30;;;;;;;29.27;4.15;;;5.80;99.90;;;;;;5145910;27;20042;-53
2022/12/30 01:34:56;;;;;;;26.67;5.15;;;5.80;99.90;;;;;;5142168;27;20041;-53
2022/12/30 01:37:23;;;;;;;30.48;4.45;;;5.80;99.90;;;;;;5145089;27;20046;-51
2022/12/30 01:39:48;;;;;;;23.38;4.43;;;5.80;99.90;;;;;;5145637;27;20785;-53
2022/12/30 01:42:22;;;;;;;33.90;4.97;;;5.80;99.90;;;;;;5146322;27;20046;-51
2022/12/30 01:45:09;;;;;;;24.40;5.03;;;5.90;99.90;;;;;;5145799;27;20047;-51
2022/12/30 01:47:43;;;;;;;31.83;4.90;;;5.90;99.90;;;;;;5145520;27;20035;-49
2022/12/30 01:50:09;;;;;;;25.15;4.22;;;5.90;99.90;;;;;;5144146;27;20051;-54
2022/12/30 01:52:36;;;;;;;28.85;4.32;;;5.90;99.90;;;;;;5144674;27;20775;-53
2022/12/30 01:55:08;;;;;;;29.52;4.85;;;6.00;99.90;;;;;;5143807;27;20077;-56
2022/12/30 01:57:34;;;;;;;39.95;5.55;;;6.00;99.90;;;;;;5145940;27;20049;-53
2022/12/30 02:00:02;;;;;;;25.23;4.72;;;5.90;99.90;;;;;;5123171;27;20358;-51
2022/12/30 02:02:29;;;;;;;22.77;3.97;;;5.90;99.90;;;;;;5124972;27;20062;-52
2022/12/30 02:04:55;;;;;;;21.05;4.45;;;5.90;99.90;;;;;;5136700;27;20064;-54
2022/12/30 02:07:27;;;;;;;24.67;4.68;;;5.90;99.90;;;;;;5143814;27;20042;-53
2022/12/30 02:09:53;;;;;;;33.00;4.70;;;5.90;99.90;;;;;;5126494;27;20035;-52
2022/12/30 02:12:19;;;;;;;27.98;4.82;;;5.90;99.90;;;;;;5145535;27;20053;-54
2022/12/30 02:14:46;;;;;;;23.15;3.85;;;5.90;99.90;;;;;;5145779;27;20627;-55
2022/12/30 02:17:39;;;;;;;27.27;5.07;;;5.90;99.90;;;;;;5144685;27;20054;-49
2022/12/30 02:20:51;;;;;;;31.15;4.55;;;5.90;99.90;;;;;;5144488;27;20723;-53
2022/12/30 02:23:58;;;;;;;28.40;4.32;;;5.80;99.90;;;;;;5097799;27;20467;-55
2022/12/30 02:27:01;;;;;;;30.42;5.10;;;5.80;99.90;;;;;;5145693;27;20043;-49
2022/12/30 02:29:48;;;;;;;23.23;4.30;;;5.80;99.90;;;;;;5144662;27;20058;-49
2022/12/30 02:32:30;;;;;;;29.60;4.70;;;5.80;99.90;;;;;;5127036;27;20564;-50
2022/12/30 02:35:26;;;;;;;25.52;4.10;;;5.70;99.90;;;;;;5143276;27;20099;-53
2022/12/30 02:38:04;;;;;;;29.33;4.65;;;5.70;99.90;;;;;;5144211;27;20659;-52
2022/12/30 02:46:49;;;;;;;29.33;4.95;;;5.60;99.90;;;;;;5145059;27;20054;-47
2022/12/30 02:49:17;;;;;;;39.20;4.22;;;5.60;99.90;;;;;;5144698;27;20043;-53
2022/12/30 02:54:30;;;;;;;24.38;4.22;;;5.60;99.90;;;;;;5144181;27;20055;-49
2022/12/30 02:56:55;;;;;;;28.30;4.47;;;5.60;99.90;;;;;;5145067;27;20039;-51
2022/12/30 03:05:36;;;;;;;21.80;4.70;;;5.40;99.90;;;;;;5139672;27;20070;-52
2022/12/30 03:08:24;;;;;;;27.73;3.92;;;5.40;99.90;;;;;;5143143;27;20117;-54
2022/12/30 03:11:12;;;;;;;31.02;4.38;;;5.40;99.90;;;;;;5124157;28;20092;-52
2022/12/30 03:13:50;;;;;;;31.95;5.03;;;5.30;99.90;;;;;;5134337;27;20103;-53
2022/12/30 03:16:32;;;;;;;27.75;4.50;;;5.20;99.90;;;;;;5144305;27;20043;-48
2022/12/30 03:19:02;;;;;;;21.63;3.83;;;5.20;99.90;;;;;;5142700;27;20067;-54
2022/12/30 03:21:32;;;;;;;33.35;5.13;;;5.20;99.90;;;;;;5127842;27;20543;-53
2022/12/30 03:27:03;;;;;;;31.33;5.68;;;5.00;99.90;;;;;;5148135;27;20043;-53
2022/12/30 03:29:34;;;;;;;32.63;4.90;;;5.00;99.90;;;;;;5148580;27;20043;-51
2022/12/30 03:32:00;;;;;;;23.90;4.78;;;4.90;99.90;;;;;;5147939;27;20443;-54
2022/12/30 03:34:27;;;;;;;27.40;5.15;;;4.90;99.90;;;;;;5147203;27;20103;-54
2022/12/30 03:37:08;;;;;;;32.28;4.68;;;4.90;99.90;;;;;;5126283;27;20160;-50
2022/12/30 03:39:39;;;;;;;29.25;5.75;;;4.90;99.90;;;;;;5138796;27;20494;-51
2022/12/30 03:42:07;;;;;;;30.48;6.10;;;5.00;99.90;;;;;;5148520;27;20034;-53
2022/12/30 03:44:33;;;;;;;34.17;6.03;;;4.90;99.90;;;;;;5148376;27;20073;-51
2022/12/30 03:46:59;;;;;;;26.88;4.70;;;5.00;99.90;;;;;;5148068;27;20049;-50
2022/12/30 03:49:25;;;;;;;30.40;4.90;;;5.00;99.90;;;;;;5145260;27;20409;-53
2022/12/30 03:51:50;;;;;;;30.10;5.72;;;5.00;99.90;;;;;;5146251;27;20054;-54
2022/12/30 03:54:16;;;;;;;35.17;4.95;;;5.00;99.90;;;;;;5147769;27;20455;-51
2022/12/30 03:56:41;;;;;;;27.75;5.18;;;4.90;99.90;;;;;;5129332;27;20042;-48
2022/12/30 03:59:07;;;;;;;30.40;4.93;;;4.90;99.90;;;;;;5147049;27;20095;-50
2022/12/30 04:01:32;;;;;;;28.40;5.50;;;4.90;99.90;;;;;;5148304;27;20042;-53
2022/12/30 04:03:58;;;;;;;33.17;4.57;;;4.90;99.90;;;;;;5146691;27;20066;-54
2022/12/30 04:06:24;;;;;;;28.27;5.18;;;4.80;99.90;;;;;;5147081;27;20450;-50
2022/12/30 04:08:49;;;;;;;36.67;5.22;;;4.80;99.90;;;;;;5144880;27;20578;-49
2022/12/30 04:11:15;;;;;;;21.45;4.60;;;4.90;99.90;;;;;;5147587;27;20042;-50
2022/12/30 04:13:40;;;;;;;26.70;5.20;;;4.80;99.90;;;;;;5148028;27;20039;-51
2022/12/30 04:16:06;;;;;;;30.75;4.82;;;4.90;99.90;;;;;;5146694;27;20114;-54
2022/12/30 04:18:33;;;;;;;24.08;5.03;;;4.80;99.90;;;;;;5146418;27;20301;-53
2022/12/30 04:20:58;;;;;;;23.05;4.10;;;4.80;99.90;;;;;;5145856;27;20972;-50
2022/12/30 04:23:24;;;;;;;27.20;4.20;;;4.90;99.90;;;;;;5127373;27;20035;-51
2022/12/30 04:25:49;;;;;;;25.67;4.20;;;4.80;99.90;;;;;;5147310;27;20082;-53
2022/12/30 04:28:15;;;;;;;35.83;5.28;;;4.80;99.90;;;;;;5129030;27;20477;-50
2022/12/30 04:30:40;;;;;;;29.63;4.70;;;4.80;99.90;;;;;;5146192;27;20598;-53
2022/12/30 04:33:06;;;;;;;27.40;4.75;;;4.80;99.90;;;;;;5147082;27;20038;-51
2022/12/30 04:35:31;;;;;;;23.63;4.75;;;4.80;99.90;;;;;;5145191;27;20368;-55
2022/12/30 04:37:58;;;;;;;34.38;5.32;;;4.80;99.90;;;;;;5147419;27;20113;-53
2022/12/30 04:40:23;;;;;;;25.95;5.55;;;4.70;99.90;;;;;;5146452;27;20286;-54
2022/12/30 04:42:49;;;;;;;27.58;5.13;;;4.80;99.90;;;;;;5146560;27;20042;-51
2022/12/30 04:45:15;;;;;;;32.90;5.55;;;4.80;99.90;;;;;;5147314;27;20047;-51
2022/12/30 04:47:40;;;;;;;28.33;5.47;;;4.80;99.90;;;;;;5145944;27;20053;-52
2022/12/30 04:50:07;;;;;;;22.15;5.22;;;4.80;99.90;;;;;;5144051;27;20046;-55
2022/12/30 04:52:33;;;;;;;30.48;6.15;;;4.80;99.90;;;;;;5145541;27;20596;-53
2022/12/30 04:54:59;;;;;;;21.98;4.82;;;4.80;99.90;;;;;;5145664;27;20081;-50
2022/12/30 04:57:24;;;;;;;28.08;5.63;;;4.80;99.90;;;;;;5146883;27;20038;-51
2022/12/30 04:59:50;;;;;;;34.38;5.53;;;4.80;99.90;;;;;;5147030;27;20039;-50
2022/12/30 05:02:16;;;;;;;24.30;5.72;;;4.80;99.90;;;;;;5145521;27;20030;-54
2022/12/30 05:04:41;;;;;;;30.50;6.60;;;4.80;99.90;;;;;;5144037;27;20117;-50
2022/12/30 05:07:07;;;;;;;29.88;5.88;;;4.80;99.90;;;;;;5145459;27;20547;-52
2022/12/30 05:09:33;;;;;;;29.60;6.25;;;4.90;99.90;;;;;;5146032;27;20091;-50
2022/12/30 05:11:58;;;;;;;28.80;6.13;;;4.90;99.90;;;;;;5146839;27;20051;-52
2022/12/30 05:14:24;;;;;;;28.60;6.68;;;4.90;99.90;;;;;;5146467;27;20478;-53
2022/12/30 05:16:49;;;;;;;26.15;6.85;;;5.00;99.90;;;;;;5146250;27;20122;-49
2022/12/30 05:19:15;;;;;;;23.05;6.53;;;5.00;99.90;;;;;;5145060;27;20038;-50
2022/12/30 05:21:41;;;;;;;18.20;6.40;;;5.00;99.90;;;;;;5144621;27;20030;-50
2022/12/30 05:26:53;;;;;;;26.52;6.10;;;4.90;99.90;;;;;;5146361;27;20047;-54
2022/12/30 05:29:18;;;;;;;23.88;5.93;;;4.90;99.90;;;;;;5146481;27;20047;-52
2022/12/30 05:31:44;;;;;;;23.20;6.30;;;4.90;99.90;;;;;;5145469;27;20424;-50
2022/12/30 05:34:10;;;;;;;30.23;5.57;;;4.90;99.90;;;;;;5145552;27;20043;-51
2022/12/30 05:36:36;;;;;;;24.40;6.10;;;4.90;99.90;;;;;;5125691;27;20038;-51
2022/12/30 05:39:01;;;;;;;23.83;5.78;;;4.80;99.90;;;;;;5144743;27;20504;-49
2022/12/30 05:41:27;;;;;;;22.38;6.60;;;4.80;99.90;;;;;;5146148;27;20117;-52
2022/12/30 05:43:52;;;;;;;29.08;6.25;;;4.70;99.90;;;;;;5145990;27;20039;-52
2022/12/30 05:46:18;;;;;;;19.25;5.45;;;4.60;99.90;;;;;;5145315;27;20034;-53
2022/12/30 05:48:44;;;;;;;24.25;6.53;;;4.60;99.90;;;;;;5144743;27;20519;-50
2022/12/30 05:51:09;;;;;;;26.50;6.70;;;4.50;99.90;;;;;;5144216;27;20070;-48
2022/12/30 05:53:35;;;;;;;21.77;6.00;;;4.50;99.90;;;;;;5144385;27;20039;-50
2022/12/30 05:56:02;;;;;;;25.33;5.85;;;4.40;99.90;;;;;;5145711;27;20082;-53
2022/12/30 05:58:28;;;;;;;21.52;5.97;;;4.40;99.90;;;;;;5145002;27;20050;-52
2022/12/30 06:00:56;;;;;;;25.60;5.85;;;4.40;99.90;;;;;;5145678;27;20489;-54
2022/12/30 06:03:22;;;;;;;25.10;5.70;;;4.40;99.90;;;;;;5145226;27;20034;-49
2022/12/30 06:05:47;;;;;;;31.30;6.03;;;4.30;99.90;;;;;;5142794;27;20091;-51
2022/12/30 06:08:13;;;;;;;23.02;5.25;;;4.30;99.90;;;;;;5144762;27;20650;-48
2022/12/30 06:10:38;;;;;;;21.50;5.43;;;4.30;99.90;;;;;;5144815;27;20087;-50
2022/12/30 06:13:04;;;;;;;24.38;5.60;;;4.40;99.90;;;;;;5145840;27;20035;-50
2022/12/30 06:15:29;;;;;;;27.05;5.72;;;4.40;99.90;;;;;;5144473;27;20319;-53
2022/12/30 06:17:55;;;;;;;21.42;5.38;;;4.30;99.90;;;;;;5145297;27;20035;-51
2022/12/30 06:20:21;;;;;;;27.80;5.97;;;4.30;99.90;;;;;;5142562;27;20169;-54
2022/12/30 06:22:46;;;;;;;23.25;5.65;;;4.40;99.90;;;;;;5126086;27;20046;-50
2022/12/30 06:25:12;;;;;;;22.80;5.13;;;4.30;99.90;;;;;;5144583;27;20045;-49
2022/12/30 06:27:37;;;;;;;21.88;5.43;;;4.40;99.90;;;;;;5126954;27;20051;-51
2022/12/30 06:30:03;;;;;;;26.60;5.53;;;4.30;99.90;;;;;;5145675;27;20525;-56
2022/12/30 06:32:31;;;;;;;24.83;4.65;;;4.30;99.90;;;;;;5144360;27;20585;-50
2022/12/30 06:34:56;;;;;;;19.98;5.18;;;4.30;99.90;;;;;;5142309;27;20425;-54
2022/12/30 06:37:22;;;;;;;22.17;5.18;;;4.30;99.90;;;;;;5144451;27;20031;-51
2022/12/30 06:39:47;;;;;;;24.02;5.15;;;4.30;99.90;;;;;;5143626;27;20046;-51
2022/12/30 06:42:13;;;;;;;24.00;4.78;;;4.30;99.90;;;;;;5145423;27;20470;-51
2022/12/30 06:44:39;;;;;;;26.90;5.32;;;4.30;99.90;;;;;;5145245;27;20052;-55
2022/12/30 06:47:04;;;;;;;31.38;4.78;;;4.30;99.90;;;;;;5145105;27;20367;-50
2022/12/30 06:49:30;;;;;;;22.70;4.75;;;4.30;99.90;;;;;;5142575;27;20390;-51
2022/12/30 06:51:55;;;;;;;24.52;4.40;;;4.30;99.90;;;;;;5143215;27;20135;-51
2022/12/30 06:54:21;;;;;;;26.05;4.68;;;4.30;99.90;;;;;;5145540;27;20548;-51
2022/12/30 06:56:46;;;;;;;28.00;4.82;;;4.30;99.90;;;;;;5149337;27;20394;-54
2022/12/30 06:59:12;;;;;;;22.73;4.60;;;4.30;99.90;;;;;;5149360;27;20401;-50
2022/12/30 07:01:37;;;;;;;22.85;4.22;;;4.30;99.90;;;;;;5130309;27;20042;-52
2022/12/30 07:04:03;;;;;;;29.35;4.22;;;4.30;99.90;;;;;;5146699;27;20045;-51
2022/12/30 07:06:28;;;;;;;18.38;3.83;;;4.20;99.90;;;;;;5147699;27;20134;-50
2022/12/30 07:08:54;;;;;;;17.95;4.78;;;4.20;99.90;;;;;;5147987;27;20478;-50
2022/12/30 07:11:19;;;;;;;19.17;4.47;;;4.20;99.90;;;;;;5149183;27;20084;-56
2022/12/30 07:13:45;;;;;;;22.63;4.85;;;4.10;99.90;;;;;;5148588;27;20414;-49
2022/12/30 07:16:10;;;;;;;24.85;4.82;;;4.20;99.90;;;;;;5149163;27;20578;-51
2022/12/30 07:18:36;;;;;;;25.73;4.93;;;4.10;99.90;;;;;;5129514;27;20549;-50
2022/12/30 07:21:02;;;;;;;29.92;5.00;;;4.10;99.90;;;;;;5147082;27;20114;-51
2022/12/30 07:23:28;;;;;;;28.08;4.95;;;4.10;99.90;;;;;;5147400;27;20046;-51
2022/12/30 07:25:53;;;;;;;18.15;3.90;;;4.10;99.90;;;;;;5148750;27;20456;-52
2022/12/30 07:28:19;;;;;;;23.60;4.32;;;4.10;99.90;;;;;;5148002;27;20042;-52
2022/12/30 07:30:44;;;;;;;30.58;4.97;;;4.10;99.90;;;;;;5140397;27;20031;-52
2022/12/30 07:33:10;;;;;;;24.05;5.15;;;4.10;99.90;;;;;;5127772;27;20039;-56
2022/12/30 07:35:36;;;;;;;19.83;4.70;;;4.10;99.90;;;;;;5145120;27;20095;-51
2022/12/30 07:38:02;;;;;;;25.80;4.90;;;4.10;99.90;;;;;;5147736;27;20027;-49
2022/12/30 07:40:27;;;;;;;24.58;5.30;;;4.10;99.90;;;;;;5147959;27;20459;-50
2022/12/30 07:42:53;;;;;;;27.95;4.72;;;4.10;99.90;;;;;;5128707;27;20030;-53
2022/12/30 07:45:18;;;;;;;19.33;4.35;;;4.10;99.90;;;;;;5148395;27;20062;-54
2022/12/30 07:47:44;;;;;;;23.95;4.90;;;4.10;99.90;;;;;;5148019;27;20354;-50
2022/12/30 07:50:11;;;;;;;20.92;4.32;;;4.10;99.90;;;;;;5122735;27;20412;-53
2022/12/30 07:52:36;;;;;;;18.35;3.60;;;4.10;99.90;;;;;;5126516;27;20093;-52
2022/12/30 07:55:02;;;;;;;27.02;4.45;;;4.10;99.90;;;;;;5142217;27;20038;-55
2022/12/30 07:57:28;;;;;;;28.13;4.78;;;4.20;99.90;;;;;;5148468;27;20035;-52
2022/12/30 07:59:54;;;;;;;21.13;4.25;;;4.20;99.90;;;;;;5148097;27;20455;-54
2022/12/30 08:02:20;;;;;;;22.67;4.47;;;4.20;99.90;;;;;;5128240;27;20038;-53
2022/12/30 08:04:46;;;;;;;24.58;4.53;;;4.20;99.90;;;;;;5127424;27;20448;-53
2022/12/30 08:07:12;;;;;;;26.10;4.38;;;4.20;99.90;;;;;;5145817;27;20070;-51
2022/12/30 08:09:37;;;;;;;25.70;4.25;;;4.20;99.90;;;;;;5129018;27;20089;-53
2022/12/30 08:12:03;;;;;;;17.85;4.50;;;4.30;99.90;;;;;;5129205;27;20362;-55
2022/12/30 08:14:29;;;;;;;29.15;4.47;;;4.30;99.90;;;;;;5148000;27;20042;-52
2022/12/30 08:16:54;;;;;;;30.23;4.82;;;4.30;99.90;;;;;;5146575;27;20031;-53
2022/12/30 08:19:20;;;;;;;20.38;3.65;;;4.30;99.90;;;;;;5146955;27;20026;-54
2022/12/30 08:21:45;;;;;;;19.67;4.15;;;4.30;99.90;;;;;;5145520;27;20120;-54
2022/12/30 08:24:11;;;;;;;23.80;4.07;;;4.30;99.90;;;;;;5147195;27;20047;-54
2022/12/30 08:26:37;;;;;;;25.83;4.60;;;4.40;99.90;;;;;;5147745;27;20521;-53
2022/12/30 08:29:02;;;;;;;26.20;3.97;;;4.40;99.90;;;;;;5111354;27;20493;-55
2022/12/30 08:31:29;;;;;;;24.05;4.10;;;4.40;99.90;;;;;;5146747;27;20081;-53
2022/12/30 08:33:56;;;;;;;20.05;4.57;;;4.40;99.90;;;;;;5146719;27;20084;-54
2022/12/30 08:36:25;;;;;;;19.08;4.53;;;4.50;99.90;;;;;;5146133;27;20278;-53
2022/12/30 08:38:53;;;;;;;17.17;3.85;;;4.50;99.90;;;;;;5146237;27;20030;-53
2022/12/30 08:41:31;;;;;;;22.45;5.10;;;4.50;99.90;;;;;;5147561;27;20042;-53
2022/12/30 08:43:57;;;;;;;20.15;3.83;;;4.50;99.90;;;;;;5147552;27;20544;-56
2022/12/30 08:46:24;;;;;;;24.33;4.63;;;4.60;99.90;;;;;;5128756;27;20051;-54
2022/12/30 08:48:50;;;;;;;20.98;4.45;;;4.60;99.90;;;;;;5145845;27;20450;-54
2022/12/30 08:51:15;;;;;;;24.85;4.25;;;4.60;99.90;;;;;;5145346;27;20162;-51
2022/12/30 08:53:42;;;;;;;23.05;4.65;;;4.60;99.90;;;;;;5145206;27;20046;-53
2022/12/30 08:56:10;;;;;;;27.40;4.22;;;4.70;99.90;;;;;;5147166;27;20070;-49
2022/12/30 08:58:35;;;;;;;21.70;4.22;;;4.70;99.90;;;;;;5146807;27;20463;-49
2022/12/30 09:01:14;;;;;;;25.35;4.22;;;4.80;99.90;;;;;;5127452;27;20042;-52
2022/12/30 09:03:41;;;;;;;19.45;3.92;;;4.80;99.90;;;;;;5145636;27;20092;-54
2022/12/30 09:06:08;;;;;;;17.83;3.70;;;4.80;99.90;;;;;;5144722;27;20391;-49
2022/12/30 09:08:34;;;;;;;17.60;4.07;;;4.80;99.90;;;;;;5145565;27;20057;-55
2022/12/30 09:11:03;;;;;;;25.65;4.20;;;4.80;99.90;;;;;;5146773;27;20042;-53
2022/12/30 09:13:29;;;;;;;22.02;4.45;;;4.90;99.90;;;;;;5145779;27;20466;-56
2022/12/30 09:15:55;;;;;;;27.98;4.45;;;4.90;99.90;;;;;;5146977;27;20078;-51
2022/12/30 09:18:21;;;;;;;21.50;4.88;;;5.00;99.90;;;;;;5145199;27;20095;-55
2022/12/30 09:20:47;;;;;;;17.77;4.53;;;5.00;99.90;;;;;;5144415;27;20152;-53
2022/12/30 09:23:12;;;;;;;18.80;4.00;;;5.00;99.90;;;;;;5126958;27;20635;-50
2022/12/30 09:25:38;;;;;;;17.33;3.63;;;5.00;99.90;;;;;;5127018;27;20042;-51
2022/12/30 09:28:04;;;;;;;20.73;3.95;;;5.10;99.90;;;;;;5145603;27;20130;-53
2022/12/30 09:30:29;;;;;;;18.15;3.58;;;5.10;99.90;;;;;;5127728;27;20038;-52
2022/12/30 09:32:55;;;;;;;24.30;3.92;;;5.10;99.90;;;;;;5126209;27;20234;-55
2022/12/30 09:35:20;;;;;;;18.58;3.83;;;5.20;99.90;;;;;;5143760;27;20505;-50
2022/12/30 09:37:46;;;;;;;18.52;4.65;;;5.20;99.90;;;;;;5144916;27;20087;-50
2022/12/30 09:40:19;;;;;;;18.50;4.32;;;5.20;99.90;;;;;;5145167;27;20501;-52
2022/12/30 09:46:03;;;;;;;18.55;3.80;;;5.40;99.90;;;;;;5146159;27;20439;-54
2022/12/30 09:48:36;;;;;;;21.35;3.97;;;5.40;99.90;;;;;;5144483;27;20035;-54
2022/12/30 09:51:06;;;;;;;17.20;3.60;;;5.40;99.90;;;;;;5144285;27;20505;-52
2022/12/30 09:53:35;;;;;;;20.15;3.85;;;5.50;99.90;;;;;;5145074;27;20038;-50
2022/12/30 09:56:12;;;;;;;15.38;3.30;;;5.50;99.90;;;;;;5146102;27;20049;-52
2022/12/30 09:58:38;;;;;;;16.15;4.07;;;5.60;99.90;;;;;;5145967;27;20421;-53
2022/12/30 10:01:28;;;;;;;14.23;3.47;;;5.60;99.90;;;;;;5145776;27;20056;-51
2022/12/30 10:03:59;;;;;;;14.77;3.70;;;5.60;99.90;;;;;;5143456;27;20085;-53
2022/12/30 10:06:29;;;;;;;21.30;3.35;;;5.70;99.90;;;;;;5144073;27;20050;-53
2022/12/30 10:09:36;;;;;;;17.13;4.20;;;5.70;99.90;;;;;;5124082;27;20050;-54
2022/12/30 10:12:35;;;;;;;19.02;4.32;;;5.70;99.90;;;;;;5145745;27;20542;-49
2022/12/30 10:15:31;;;;;;;16.85;3.42;;;5.80;99.90;;;;;;5145792;27;20074;-50
2022/12/30 10:18:02;;;;;;;17.08;3.40;;;5.80;99.90;;;;;;5145185;27;20050;-52
2022/12/30 10:20:49;;;;;;;17.52;3.55;;;5.90;99.90;;;;;;5143776;27;20039;-52
2022/12/30 10:23:29;;;;;;;13.93;3.40;;;5.90;99.90;;;;;;5144882;27;20478;-51
2022/12/30 10:26:20;;;;;;;16.60;3.45;;;6.00;99.90;;;;;;5145931;27;20489;-54
2022/12/30 10:28:54;;;;;;;20.60;3.47;;;6.10;99.90;;;;;;5143996;27;20042;-51
2022/12/30 10:31:24;;;;;;;19.55;3.55;;;6.10;99.90;;;;;;5126807;27;20042;-51
2022/12/30 10:33:53;;;;;;;13.57;2.97;;;6.20;99.90;;;;;;5144339;27;20089;-56
2022/12/30 10:36:51;;;;;;;19.27;3.90;;;6.20;99.90;;;;;;5143499;27;20889;-52
2022/12/30 10:39:22;;;;;;;15.85;3.70;;;6.30;99.90;;;;;;5130357;27;20549;-49
2022/12/30 10:42:08;;;;;;;17.42;3.05;;;6.40;99.90;;;;;;5145658;27;20189;-56
2022/12/30 10:44:51;;;;;;;16.63;3.22;;;6.40;99.90;;;;;;5145310;27;20058;-53
2022/12/30 10:47:30;;;;;;;13.48;2.90;;;6.50;99.90;;;;;;5126902;27;20035;-54
2022/12/30 10:50:22;;;;;;;14.13;2.80;;;6.50;99.90;;;;;;5141965;27;20046;-55
2022/12/30 10:52:48;;;;;;;15.93;3.25;;;6.60;99.90;;;;;;5144961;27;20050;-52
2022/12/30 10:55:19;;;;;;;11.80;2.85;;;6.70;99.90;;;;;;5144081;27;20579;-53
2022/12/30 10:57:47;;;;;;;14.40;2.78;;;6.70;99.90;;;;;;5127065;27;20027;-55
2022/12/30 11:00:14;;;;;;;13.95;2.60;;;6.80;99.90;;;;;;5145581;27;20038;-51
2022/12/30 11:02:52;;;;;;;11.32;3.03;;;6.80;99.90;;;;;;5144019;27;20045;-51
2022/12/30 11:05:34;;;;;;;11.63;2.85;;;6.90;99.90;;;;;;5143622;27;20088;-55
2022/12/30 11:08:02;;;;;;;12.85;2.72;;;6.90;99.90;;;;;;5144005;27;20050;-56
2022/12/30 11:10:29;;;;;;;14.55;3.00;;;6.90;99.90;;;;;;5144252;27;20824;-53
2022/12/30 11:15:57;;;;;;;13.30;2.90;;;7.00;99.90;;;;;;5145308;27;20497;-55
2022/12/30 11:18:28;;;;;;;11.07;2.50;;;7.00;99.90;;;;;;5143614;27;20042;-52
2022/12/30 11:20:56;;;;;;;6.07;1.90;;;7.00;99.90;;;;;;5143067;27;20462;-56
2022/12/30 11:23:30;;;;;;;11.00;2.15;;;7.00;99.90;;;;;;5144257;27;20034;-57
2022/12/30 11:25:56;;;;;;;12.73;2.55;;;7.10;99.90;;;;;;5124398;28;20572;-54
2022/12/30 11:28:31;;;;;;;11.80;2.40;;;7.10;99.90;;;;;;5122813;28;20046;-55
2022/12/30 11:31:02;;;;;;;14.55;2.60;;;7.10;99.90;;;;;;5124160;28;20035;-53
2022/12/30 11:33:34;;;;;;;12.02;2.53;;;7.10;99.90;;;;;;5142850;27;20688;-51
2022/12/30 11:36:31;;;;;;;9.52;2.13;;;7.10;99.90;;;;;;5141947;27;20152;-53
2022/12/30 11:39:23;;;;;;;15.40;2.75;;;7.10;99.90;;;;;;5142901;27;20142;-52
2022/12/30 11:41:55;;;;;;;15.07;3.15;;;7.20;99.90;;;;;;5148513;27;20110;-51
2022/12/30 11:44:29;;;;;;;9.52;2.55;;;7.20;99.90;;;;;;5148017;27;20035;-55
2022/12/30 11:46:59;;;;;;;8.80;2.33;;;7.20;99.90;;;;;;5129671;27;20034;-55
2022/12/30 11:49:29;;;;;;;15.25;2.90;;;7.30;99.90;;;;;;5147302;27;20078;-54
2022/12/30 11:52:04;;;;;;;10.70;2.85;;;7.30;99.90;;;;;;5146337;27;20368;-51
2022/12/30 11:54:50;;;;;;;8.75;2.03;;;7.30;99.90;;;;;;5147823;27;20076;-54
2022/12/30 11:57:33;;;;;;;12.85;2.75;;;7.40;99.90;;;;;;5148579;27;20118;-53
2022/12/30 12:00:16;;;;;;;14.18;2.50;;;7.40;99.90;;;;;;5147236;27;20504;-56
2022/12/30 12:02:48;;;;;;;12.35;2.22;;;7.40;99.90;;;;;;5129633;27;20046;-52
2022/12/30 12:05:20;;;;;;;12.32;2.92;;;7.40;99.90;;;;;;5145586;27;20039;-55
2022/12/30 12:07:47;;;;;;;9.38;2.58;;;7.50;99.90;;;;;;5147086;27;20081;-54
2022/12/30 12:10:20;;;;;;;11.32;2.40;;;7.50;99.90;;;;;;5147165;27;20085;-55
2022/12/30 12:12:57;;;;;;;11.05;2.33;;;7.50;99.90;;;;;;5147566;27;20046;-52
2022/12/30 12:15:45;;;;;;;11.55;2.35;;;7.60;99.90;;;;;;5147836;27;20138;-55
2022/12/30 12:18:32;;;;;;;9.18;2.17;;;7.60;99.90;;;;;;5147560;27;20037;-57
2022/12/30 12:21:14;;;;;;;8.38;2.20;;;7.70;99.90;;;;;;5145416;27;20038;-56
2022/12/30 12:23:55;;;;;;;9.50;2.10;;;7.70;99.90;;;;;;5127809;27;20610;-51
2022/12/30 12:26:36;;;;;;;10.57;2.30;;;7.70;99.90;;;;;;5128983;27;20050;-54
2022/12/30 12:29:03;;;;;;;11.27;2.70;;;7.70;99.90;;;;;;5147837;27;20044;-54
2022/12/30 12:32:03;;;;;;;10.05;2.00;;;7.70;99.90;;;;;;5146699;27;20045;-54
2022/12/30 12:35:06;;;;;;;13.25;2.47;;;7.80;99.90;;;;;;5146645;27;20035;-55
2022/12/30 12:38:19;;;;;;;10.57;2.45;;;7.80;99.90;;;;;;5125363;27;20630;-56
2022/12/30 12:41:00;;;;;;;8.48;2.00;;;7.80;99.90;;;;;;5127910;27;20040;-56
2022/12/30 12:44:02;;;;;;;6.65;1.73;;;7.80;99.90;;;;;;5147461;27;20031;-57
2022/12/30 12:46:52;;;;;;;10.00;2.30;;;7.80;99.90;;;;;;5146148;27;20098;-55
2022/12/30 12:49:51;;;;;;;9.68;2.38;;;7.80;99.90;;;;;;5145910;27;20527;-54
2022/12/30 12:52:22;;;;;;;9.27;2.20;;;7.80;99.90;;;;;;5124261;27;20138;-55
2022/12/30 12:55:18;;;;;;;11.18;2.60;;;7.90;99.90;;;;;;5137563;27;20596;-56
2022/12/30 12:57:57;;;;;;;11.02;2.35;;;7.90;99.90;;;;;;5128761;27;20456;-53
2022/12/30 13:00:25;;;;;;;9.60;2.50;;;7.90;99.90;;;;;;5146868;27;20035;-55
2022/12/30 13:03:24;;;;;;;7.75;2.05;;;7.90;99.90;;;;;;5145873;27;20038;-55
2022/12/30 13:06:17;;;;;;;8.60;2.80;;;7.90;99.90;;;;;;5144110;27;20134;-57
2022/12/30 13:09:05;;;;;;;10.95;2.05;;;7.90;99.90;;;;;;5144908;27;20034;-54
2022/12/30 13:11:52;;;;;;;10.70;2.17;;;8.00;99.90;;;;;;5147085;27;20556;-55
2022/12/30 13:14:37;;;;;;;10.38;2.25;;;8.00;99.90;;;;;;5146911;27;20038;-55
2022/12/30 13:17:14;;;;;;;6.55;1.70;;;8.10;99.90;;;;;;5146441;27;20054;-56
2022/12/30 13:19:42;;;;;;;8.68;1.85;;;8.10;99.90;;;;;;5133526;27;20363;-54
2022/12/30 13:22:13;;;;;;;10.82;2.22;;;8.10;99.90;;;;;;5144575;27;20710;-56
2022/12/30 13:24:43;;;;;;;10.65;2.00;;;8.10;99.90;;;;;;5145452;27;20571;-55
2022/12/30 13:27:21;;;;;;;7.50;1.65;;;8.10;99.90;;;;;;5146991;27;20039;-55
2022/12/30 13:29:47;;;;;;;10.23;2.15;;;8.10;99.90;;;;;;5145479;27;20426;-55
2022/12/30 13:32:37;;;;;;;12.57;1.90;;;8.10;99.90;;;;;;5146266;27;20038;-53
2022/12/30 13:35:15;;;;;;;12.77;1.85;;;8.10;99.90;;;;;;5143658;27;20151;-57
2022/12/30 13:38:04;;;;;;;7.53;1.88;;;8.20;99.90;;;;;;5146519;27;20235;-54
2022/12/30 13:40:48;;;;;;;11.38;1.70;;;8.20;99.90;;;;;;5131512;27;20047;-55
2022/12/30 13:43:26;;;;;;;7.82;1.70;;;8.20;99.90;;;;;;5146781;27;20050;-55
2022/12/30 13:45:57;;;;;;;9.48;1.98;;;8.20;99.90;;;;;;5145926;27;20039;-53
2022/12/30 13:48:24;;;;;;;8.60;1.90;;;8.20;99.90;;;;;;5127238;27;20042;-55
2022/12/30 13:51:05;;;;;;;7.18;1.55;;;8.20;99.90;;;;;;5144266;27;20468;-55
2022/12/30 13:53:47;;;;;;;6.93;1.60;;;8.30;99.90;;;;;;5145510;27;20235;-53
2022/12/30 13:56:19;;;;;;;11.45;1.80;;;8.30;99.90;;;;;;5125615;27;20626;-56
2022/12/30 13:58:52;;;;;;;7.38;1.90;;;8.30;99.90;;;;;;5127179;27;20395;-57
2022/12/30 14:01:20;;;;;;;8.80;1.65;;;8.30;99.90;;;;;;5146454;27;20552;-55
2022/12/30 14:03:47;;;;;;;8.75;1.83;;;8.30;99.90;;;;;;5145065;27;20117;-55
2022/12/30 14:06:45;;;;;;;8.20;1.65;;;8.40;99.90;;;;;;5144790;27;20081;-56
2022/12/30 14:09:20;;;;;;;7.97;1.58;;;8.40;99.90;;;;;;5117564;27;20536;-53
2022/12/30 14:12:04;;;;;;;7.15;1.42;;;8.40;99.90;;;;;;5127591;27;20042;-57